sensor_id;sensor_type;location;lat;lon;timestamp;P1;durP1;ratioP1;P2;durP2;ratioP2
76818;SDS011;65772;51.096;17.006;2022-12-28T00:01:34;5.30;;;2.90;;
76818;SDS011;65772;51.096;17.006;2022-12-28T00:04:05;8.20;;;3.20;;
76818;SDS011;65772;51.096;17.006;2022-12-28T00:06:35;6.60;;;3.10;;
76818;SDS011;65772;51.096;17.006;2022-12-28T00:09:07;7.40;;;3.30;;
76818;SDS011;65772;51.096;17.006;2022-12-28T00:11:39;8.20;;;3.10;;
76818;SDS011;65772;51.096;17.006;2022-12-28T00:14:09;8.80;;;3.20;;
76818;SDS011;65772;51.096;17.006;2022-12-28T00:16:40;7.90;;;3.10;;
76818;SDS011;65772;51.096;17.006;2022-12-28T00:19:12;8.90;;;3.40;;
76818;SDS011;65772;51.096;17.006;2022-12-28T00:21:43;7.60;;;3.10;;
76818;SDS011;65772;51.096;17.006;2022-12-28T00:24:16;7.70;;;3.50;;
76818;SDS011;65772;51.096;17.006;2022-12-28T00:26:49;8.80;;;3.80;;
76818;SDS011;65772;51.096;17.006;2022-12-28T00:29:22;10.00;;;3.80;;
76818;SDS011;65772;51.096;17.006;2022-12-28T00:31:54;12.40;;;4.80;;
76818;SDS011;65772;51.096;17.006;2022-12-28T00:34:25;7.90;;;4.00;;
76818;SDS011;65772;51.096;17.006;2022-12-28T00:36:55;9.20;;;3.60;;
76818;SDS011;65772;51.096;17.006;2022-12-28T00:39:39;9.20;;;3.70;;
76818;SDS011;65772;51.096;17.006;2022-12-28T00:42:14;9.50;;;3.70;;
76818;SDS011;65772;51.096;17.006;2022-12-28T00:44:45;7.80;;;3.50;;
76818;SDS011;65772;51.096;17.006;2022-12-28T00:47:16;6.40;;;3.40;;
76818;SDS011;65772;51.096;17.006;2022-12-28T00:49:46;10.00;;;3.40;;
76818;SDS011;65772;51.096;17.006;2022-12-28T00:52:17;7.60;;;3.80;;
76818;SDS011;65772;51.096;17.006;2022-12-28T00:54:47;9.00;;;3.50;;
76818;SDS011;65772;51.096;17.006;2022-12-28T00:57:18;9.80;;;3.50;;
76818;SDS011;65772;51.096;17.006;2022-12-28T00:59:48;7.10;;;3.20;;
76818;SDS011;65772;51.096;17.006;2022-12-28T01:02:19;8.30;;;3.40;;
76818;SDS011;65772;51.096;17.006;2022-12-28T01:04:50;7.30;;;3.20;;
76818;SDS011;65772;51.096;17.006;2022-12-28T01:07:20;7.90;;;3.20;;
76818;SDS011;65772;51.096;17.006;2022-12-28T01:09:51;7.00;;;3.00;;
76818;SDS011;65772;51.096;17.006;2022-12-28T01:12:21;9.00;;;3.50;;
76818;SDS011;65772;51.096;17.006;2022-12-28T01:14:52;10.80;;;4.10;;
76818;SDS011;65772;51.096;17.006;2022-12-28T01:17:24;11.00;;;4.30;;
76818;SDS011;65772;51.096;17.006;2022-12-28T01:19:55;7.20;;;3.20;;
76818;SDS011;65772;51.096;17.006;2022-12-28T01:22:27;7.60;;;3.40;;
76818;SDS011;65772;51.096;17.006;2022-12-28T01:24:57;8.20;;;3.10;;
76818;SDS011;65772;51.096;17.006;2022-12-28T01:27:28;5.90;;;2.60;;
76818;SDS011;65772;51.096;17.006;2022-12-28T01:30:01;6.90;;;3.40;;
76818;SDS011;65772;51.096;17.006;2022-12-28T01:32:32;5.90;;;3.20;;
76818;SDS011;65772;51.096;17.006;2022-12-28T01:35:03;7.70;;;3.30;;
76818;SDS011;65772;51.096;17.006;2022-12-28T01:37:35;9.00;;;3.50;;
76818;SDS011;65772;51.096;17.006;2022-12-28T01:40:07;7.50;;;3.40;;
76818;SDS011;65772;51.096;17.006;2022-12-28T01:42:41;7.70;;;3.80;;
76818;SDS011;65772;51.096;17.006;2022-12-28T01:45:16;7.50;;;3.40;;
76818;SDS011;65772;51.096;17.006;2022-12-28T01:47:50;7.30;;;3.70;;
76818;SDS011;65772;51.096;17.006;2022-12-28T01:50:24;5.90;;;3.20;;
76818;SDS011;65772;51.096;17.006;2022-12-28T01:52:59;7.30;;;3.40;;
76818;SDS011;65772;51.096;17.006;2022-12-28T01:55:33;9.70;;;3.90;;
76818;SDS011;65772;51.096;17.006;2022-12-28T01:58:08;9.30;;;3.10;;
76818;SDS011;65772;51.096;17.006;2022-12-28T02:00:44;8.30;;;3.50;;
76818;SDS011;65772;51.096;17.006;2022-12-28T02:03:15;7.90;;;3.80;;
76818;SDS011;65772;51.096;17.006;2022-12-28T02:05:49;10.00;;;3.80;;
76818;SDS011;65772;51.096;17.006;2022-12-28T02:08:23;7.80;;;3.80;;
76818;SDS011;65772;51.096;17.006;2022-12-28T02:10:59;8.10;;;3.80;;
76818;SDS011;65772;51.096;17.006;2022-12-28T02:13:30;7.30;;;4.00;;
76818;SDS011;65772;51.096;17.006;2022-12-28T02:16:02;10.40;;;4.10;;
76818;SDS011;65772;51.096;17.006;2022-12-28T02:18:33;9.60;;;4.60;;
76818;SDS011;65772;51.096;17.006;2022-12-28T02:21:11;8.80;;;4.10;;
76818;SDS011;65772;51.096;17.006;2022-12-28T02:24:00;9.10;;;4.10;;
76818;SDS011;65772;51.096;17.006;2022-12-28T02:26:51;9.40;;;3.90;;
76818;SDS011;65772;51.096;17.006;2022-12-28T02:29:33;6.50;;;3.20;;
76818;SDS011;65772;51.096;17.006;2022-12-28T02:32:19;9.60;;;3.50;;
76818;SDS011;65772;51.096;17.006;2022-12-28T02:35:00;8.60;;;3.30;;
76818;SDS011;65772;51.096;17.006;2022-12-28T02:37:37;6.50;;;3.80;;
76818;SDS011;65772;51.096;17.006;2022-12-28T02:40:13;9.90;;;3.20;;
76818;SDS011;65772;51.096;17.006;2022-12-28T02:42:47;7.70;;;3.80;;
76818;SDS011;65772;51.096;17.006;2022-12-28T02:45:28;8.80;;;3.70;;
76818;SDS011;65772;51.096;17.006;2022-12-28T02:48:18;9.00;;;3.50;;
76818;SDS011;65772;51.096;17.006;2022-12-28T02:51:13;11.10;;;3.60;;
76818;SDS011;65772;51.096;17.006;2022-12-28T02:57:10;6.80;;;3.50;;
76818;SDS011;65772;51.096;17.006;2022-12-28T02:59:56;7.30;;;3.60;;
76818;SDS011;65772;51.096;17.006;2022-12-28T03:02:50;7.50;;;3.50;;
76818;SDS011;65772;51.096;17.006;2022-12-28T03:05:31;6.80;;;3.60;;
76818;SDS011;65772;51.096;17.006;2022-12-28T03:08:28;8.00;;;3.50;;
76818;SDS011;65772;51.096;17.006;2022-12-28T03:11:06;8.70;;;3.30;;
76818;SDS011;65772;51.096;17.006;2022-12-28T03:13:44;9.40;;;3.60;;
76818;SDS011;65772;51.096;17.006;2022-12-28T03:16:23;7.10;;;3.50;;
76818;SDS011;65772;51.096;17.006;2022-12-28T03:18:59;7.10;;;3.60;;
76818;SDS011;65772;51.096;17.006;2022-12-28T03:21:54;5.90;;;3.80;;
76818;SDS011;65772;51.096;17.006;2022-12-28T03:24:44;8.00;;;4.20;;
76818;SDS011;65772;51.096;17.006;2022-12-28T03:27:34;7.80;;;4.60;;
76818;SDS011;65772;51.096;17.006;2022-12-28T03:33:13;9.40;;;5.60;;
76818;SDS011;65772;51.096;17.006;2022-12-28T03:35:47;11.10;;;4.80;;
76818;SDS011;65772;51.096;17.006;2022-12-28T03:38:24;8.00;;;4.00;;
76818;SDS011;65772;51.096;17.006;2022-12-28T03:41:01;6.10;;;3.60;;
76818;SDS011;65772;51.096;17.006;2022-12-28T03:43:37;6.70;;;3.90;;
76818;SDS011;65772;51.096;17.006;2022-12-28T03:48:48;6.80;;;4.10;;
76818;SDS011;65772;51.096;17.006;2022-12-28T03:51:20;7.20;;;4.40;;
76818;SDS011;65772;51.096;17.006;2022-12-28T03:53:53;8.20;;;4.40;;
76818;SDS011;65772;51.096;17.006;2022-12-28T03:56:26;12.70;;;4.90;;
76818;SDS011;65772;51.096;17.006;2022-12-28T03:58:59;9.20;;;3.80;;
76818;SDS011;65772;51.096;17.006;2022-12-28T04:04:07;9.60;;;4.40;;
76818;SDS011;65772;51.096;17.006;2022-12-28T04:06:38;7.60;;;4.70;;
76818;SDS011;65772;51.096;17.006;2022-12-28T04:09:10;9.10;;;4.80;;
76818;SDS011;65772;51.096;17.006;2022-12-28T04:11:42;9.50;;;4.50;;
76818;SDS011;65772;51.096;17.006;2022-12-28T04:14:18;10.10;;;5.00;;
76818;SDS011;65772;51.096;17.006;2022-12-28T04:16:49;10.80;;;5.10;;
76818;SDS011;65772;51.096;17.006;2022-12-28T04:19:19;9.50;;;5.00;;
76818;SDS011;65772;51.096;17.006;2022-12-28T04:21:51;8.30;;;5.00;;
76818;SDS011;65772;51.096;17.006;2022-12-28T04:24:21;11.50;;;5.30;;
76818;SDS011;65772;51.096;17.006;2022-12-28T04:26:53;8.10;;;4.30;;
76818;SDS011;65772;51.096;17.006;2022-12-28T04:29:23;9.10;;;4.60;;
76818;SDS011;65772;51.096;17.006;2022-12-28T04:32:01;10.60;;;4.80;;
76818;SDS011;65772;51.096;17.006;2022-12-28T04:34:33;10.70;;;5.40;;
76818;SDS011;65772;51.096;17.006;2022-12-28T04:37:08;9.70;;;5.00;;
76818;SDS011;65772;51.096;17.006;2022-12-28T04:39:38;11.90;;;5.30;;
76818;SDS011;65772;51.096;17.006;2022-12-28T04:44:53;9.40;;;4.20;;
76818;SDS011;65772;51.096;17.006;2022-12-28T04:47:24;7.40;;;4.00;;
76818;SDS011;65772;51.096;17.006;2022-12-28T04:49:54;7.60;;;3.50;;
76818;SDS011;65772;51.096;17.006;2022-12-28T04:52:25;10.40;;;3.90;;
76818;SDS011;65772;51.096;17.006;2022-12-28T04:54:55;8.60;;;4.20;;
76818;SDS011;65772;51.096;17.006;2022-12-28T04:57:26;9.10;;;4.50;;
76818;SDS011;65772;51.096;17.006;2022-12-28T04:59:56;8.00;;;4.20;;
76818;SDS011;65772;51.096;17.006;2022-12-28T05:02:27;8.50;;;4.20;;
76818;SDS011;65772;51.096;17.006;2022-12-28T05:04:58;8.00;;;4.40;;
76818;SDS011;65772;51.096;17.006;2022-12-28T05:07:29;9.90;;;4.30;;
76818;SDS011;65772;51.096;17.006;2022-12-28T05:09:59;9.90;;;3.90;;
76818;SDS011;65772;51.096;17.006;2022-12-28T05:12:30;7.20;;;3.50;;
76818;SDS011;65772;51.096;17.006;2022-12-28T05:15:01;8.00;;;4.00;;
76818;SDS011;65772;51.096;17.006;2022-12-28T05:17:32;8.20;;;3.50;;
76818;SDS011;65772;51.096;17.006;2022-12-28T05:20:02;9.70;;;4.10;;
76818;SDS011;65772;51.096;17.006;2022-12-28T05:22:34;8.70;;;4.30;;
76818;SDS011;65772;51.096;17.006;2022-12-28T05:25:08;8.00;;;4.20;;
76818;SDS011;65772;51.096;17.006;2022-12-28T05:27:38;7.30;;;4.30;;
76818;SDS011;65772;51.096;17.006;2022-12-28T05:30:10;8.30;;;3.70;;
76818;SDS011;65772;51.096;17.006;2022-12-28T05:32:41;7.50;;;3.70;;
76818;SDS011;65772;51.096;17.006;2022-12-28T05:35:11;10.40;;;5.00;;
76818;SDS011;65772;51.096;17.006;2022-12-28T05:37:42;12.30;;;4.90;;
76818;SDS011;65772;51.096;17.006;2022-12-28T05:40:12;8.30;;;4.60;;
76818;SDS011;65772;51.096;17.006;2022-12-28T05:42:43;11.50;;;4.80;;
76818;SDS011;65772;51.096;17.006;2022-12-28T05:45:18;9.70;;;4.30;;
76818;SDS011;65772;51.096;17.006;2022-12-28T05:47:49;8.10;;;3.80;;
76818;SDS011;65772;51.096;17.006;2022-12-28T05:50:19;9.90;;;4.20;;
76818;SDS011;65772;51.096;17.006;2022-12-28T05:52:50;8.50;;;3.80;;
76818;SDS011;65772;51.096;17.006;2022-12-28T05:55:21;9.10;;;3.50;;
76818;SDS011;65772;51.096;17.006;2022-12-28T05:57:51;8.40;;;3.90;;
76818;SDS011;65772;51.096;17.006;2022-12-28T06:00:23;6.40;;;3.50;;
76818;SDS011;65772;51.096;17.006;2022-12-28T06:02:55;8.70;;;4.00;;
76818;SDS011;65772;51.096;17.006;2022-12-28T06:05:25;6.10;;;3.30;;
76818;SDS011;65772;51.096;17.006;2022-12-28T06:07:56;7.80;;;3.70;;
76818;SDS011;65772;51.096;17.006;2022-12-28T06:10:27;8.00;;;3.20;;
76818;SDS011;65772;51.096;17.006;2022-12-28T06:12:58;8.00;;;3.70;;
76818;SDS011;65772;51.096;17.006;2022-12-28T06:15:29;7.90;;;3.10;;
76818;SDS011;65772;51.096;17.006;2022-12-28T06:17:59;7.70;;;3.30;;
76818;SDS011;65772;51.096;17.006;2022-12-28T06:20:30;7.30;;;3.00;;
76818;SDS011;65772;51.096;17.006;2022-12-28T06:23:00;7.30;;;3.10;;
76818;SDS011;65772;51.096;17.006;2022-12-28T06:25:31;8.10;;;3.90;;
76818;SDS011;65772;51.096;17.006;2022-12-28T06:28:01;9.40;;;3.80;;
76818;SDS011;65772;51.096;17.006;2022-12-28T06:30:32;7.50;;;4.00;;
76818;SDS011;65772;51.096;17.006;2022-12-28T06:33:02;8.50;;;5.10;;
76818;SDS011;65772;51.096;17.006;2022-12-28T06:35:33;13.80;;;5.10;;
76818;SDS011;65772;51.096;17.006;2022-12-28T06:38:07;10.10;;;4.80;;
76818;SDS011;65772;51.096;17.006;2022-12-28T06:40:38;10.80;;;4.30;;
76818;SDS011;65772;51.096;17.006;2022-12-28T06:43:30;10.10;;;4.10;;
76818;SDS011;65772;51.096;17.006;2022-12-28T06:46:01;8.50;;;4.00;;
76818;SDS011;65772;51.096;17.006;2022-12-28T06:48:32;9.90;;;3.90;;
76818;SDS011;65772;51.096;17.006;2022-12-28T06:51:05;9.00;;;3.90;;
76818;SDS011;65772;51.096;17.006;2022-12-28T06:53:38;5.90;;;4.00;;
76818;SDS011;65772;51.096;17.006;2022-12-28T06:56:09;7.70;;;4.10;;
76818;SDS011;65772;51.096;17.006;2022-12-28T06:58:41;8.70;;;4.30;;
76818;SDS011;65772;51.096;17.006;2022-12-28T07:01:13;9.50;;;3.70;;
76818;SDS011;65772;51.096;17.006;2022-12-28T07:03:47;8.40;;;3.80;;
76818;SDS011;65772;51.096;17.006;2022-12-28T07:06:20;10.00;;;3.80;;
76818;SDS011;65772;51.096;17.006;2022-12-28T07:08:56;7.90;;;4.40;;
76818;SDS011;65772;51.096;17.006;2022-12-28T07:11:27;12.10;;;4.10;;
76818;SDS011;65772;51.096;17.006;2022-12-28T07:13:58;36.40;;;6.10;;
76818;SDS011;65772;51.096;17.006;2022-12-28T07:16:29;30.90;;;7.50;;
76818;SDS011;65772;51.096;17.006;2022-12-28T07:18:58;18.10;;;4.70;;
76818;SDS011;65772;51.096;17.006;2022-12-28T07:21:31;37.50;;;7.20;;
76818;SDS011;65772;51.096;17.006;2022-12-28T07:24:03;34.10;;;6.00;;
76818;SDS011;65772;51.096;17.006;2022-12-28T07:26:35;20.80;;;6.40;;
76818;SDS011;65772;51.096;17.006;2022-12-28T07:29:07;12.20;;;4.00;;
76818;SDS011;65772;51.096;17.006;2022-12-28T07:31:38;10.90;;;3.90;;
76818;SDS011;65772;51.096;17.006;2022-12-28T07:34:13;9.30;;;3.60;;
76818;SDS011;65772;51.096;17.006;2022-12-28T07:36:43;6.80;;;3.20;;
76818;SDS011;65772;51.096;17.006;2022-12-28T07:39:14;8.20;;;3.50;;
76818;SDS011;65772;51.096;17.006;2022-12-28T07:41:44;11.00;;;3.60;;
76818;SDS011;65772;51.096;17.006;2022-12-28T07:44:20;7.10;;;2.90;;
76818;SDS011;65772;51.096;17.006;2022-12-28T07:46:56;6.60;;;2.90;;
76818;SDS011;65772;51.096;17.006;2022-12-28T07:49:26;7.80;;;3.40;;
76818;SDS011;65772;51.096;17.006;2022-12-28T07:51:57;7.10;;;2.90;;
76818;SDS011;65772;51.096;17.006;2022-12-28T07:54:28;8.80;;;2.90;;
76818;SDS011;65772;51.096;17.006;2022-12-28T07:56:59;7.20;;;3.00;;
76818;SDS011;65772;51.096;17.006;2022-12-28T07:59:29;6.10;;;2.80;;
76818;SDS011;65772;51.096;17.006;2022-12-28T08:02:00;7.90;;;3.10;;
76818;SDS011;65772;51.096;17.006;2022-12-28T08:04:31;11.10;;;3.70;;
76818;SDS011;65772;51.096;17.006;2022-12-28T08:07:01;6.40;;;2.90;;
76818;SDS011;65772;51.096;17.006;2022-12-28T08:09:32;6.70;;;2.90;;
76818;SDS011;65772;51.096;17.006;2022-12-28T08:12:03;8.40;;;3.70;;
76818;SDS011;65772;51.096;17.006;2022-12-28T08:14:34;5.90;;;3.40;;
76818;SDS011;65772;51.096;17.006;2022-12-28T08:17:04;6.70;;;3.10;;
76818;SDS011;65772;51.096;17.006;2022-12-28T08:19:35;5.70;;;2.80;;
76818;SDS011;65772;51.096;17.006;2022-12-28T08:22:05;8.30;;;3.40;;
76818;SDS011;65772;51.096;17.006;2022-12-28T08:24:36;7.40;;;3.10;;
76818;SDS011;65772;51.096;17.006;2022-12-28T08:27:06;8.30;;;3.70;;
76818;SDS011;65772;51.096;17.006;2022-12-28T08:29:37;7.60;;;3.70;;
76818;SDS011;65772;51.096;17.006;2022-12-28T08:32:07;10.90;;;4.00;;
76818;SDS011;65772;51.096;17.006;2022-12-28T08:34:38;9.30;;;3.60;;
76818;SDS011;65772;51.096;17.006;2022-12-28T08:37:08;7.90;;;3.80;;
76818;SDS011;65772;51.096;17.006;2022-12-28T08:39:39;9.10;;;3.60;;
76818;SDS011;65772;51.096;17.006;2022-12-28T08:42:09;7.00;;;2.90;;
76818;SDS011;65772;51.096;17.006;2022-12-28T08:44:40;6.80;;;3.10;;
76818;SDS011;65772;51.096;17.006;2022-12-28T08:47:10;7.50;;;2.60;;
76818;SDS011;65772;51.096;17.006;2022-12-28T08:49:41;7.20;;;3.00;;
76818;SDS011;65772;51.096;17.006;2022-12-28T08:52:12;8.20;;;3.10;;
76818;SDS011;65772;51.096;17.006;2022-12-28T08:54:42;10.00;;;3.10;;
76818;SDS011;65772;51.096;17.006;2022-12-28T08:57:13;7.80;;;3.00;;
76818;SDS011;65772;51.096;17.006;2022-12-28T08:59:43;6.10;;;2.50;;
76818;SDS011;65772;51.096;17.006;2022-12-28T09:02:14;7.70;;;2.90;;
76818;SDS011;65772;51.096;17.006;2022-12-28T09:04:45;5.90;;;2.30;;
76818;SDS011;65772;51.096;17.006;2022-12-28T09:07:15;7.00;;;2.20;;
76818;SDS011;65772;51.096;17.006;2022-12-28T09:09:46;6.80;;;2.20;;
76818;SDS011;65772;51.096;17.006;2022-12-28T09:12:17;6.20;;;2.30;;
76818;SDS011;65772;51.096;17.006;2022-12-28T09:14:47;5.40;;;2.20;;
76818;SDS011;65772;51.096;17.006;2022-12-28T09:17:18;6.40;;;2.60;;
76818;SDS011;65772;51.096;17.006;2022-12-28T09:19:48;11.00;;;2.80;;
76818;SDS011;65772;51.096;17.006;2022-12-28T09:22:18;9.00;;;2.80;;
76818;SDS011;65772;51.096;17.006;2022-12-28T09:24:49;5.60;;;2.10;;
76818;SDS011;65772;51.096;17.006;2022-12-28T09:27:19;6.60;;;2.30;;
76818;SDS011;65772;51.096;17.006;2022-12-28T09:29:50;7.00;;;2.60;;
76818;SDS011;65772;51.096;17.006;2022-12-28T09:32:21;6.30;;;2.40;;
76818;SDS011;65772;51.096;17.006;2022-12-28T09:34:52;4.40;;;2.10;;
76818;SDS011;65772;51.096;17.006;2022-12-28T09:37:22;5.10;;;2.10;;
76818;SDS011;65772;51.096;17.006;2022-12-28T09:39:53;7.00;;;2.60;;
76818;SDS011;65772;51.096;17.006;2022-12-28T09:42:28;7.40;;;2.80;;
76818;SDS011;65772;51.096;17.006;2022-12-28T09:45:01;5.60;;;1.70;;
76818;SDS011;65772;51.096;17.006;2022-12-28T09:47:37;9.70;;;2.40;;
76818;SDS011;65772;51.096;17.006;2022-12-28T09:50:23;4.20;;;1.80;;
76818;SDS011;65772;51.096;17.006;2022-12-28T09:56:01;7.00;;;2.10;;
76818;SDS011;65772;51.096;17.006;2022-12-28T09:58:35;7.20;;;2.10;;
76818;SDS011;65772;51.096;17.006;2022-12-28T10:01:15;7.20;;;2.50;;
76818;SDS011;65772;51.096;17.006;2022-12-28T10:03:48;4.90;;;1.90;;
76818;SDS011;65772;51.096;17.006;2022-12-28T10:06:20;6.70;;;2.40;;
76818;SDS011;65772;51.096;17.006;2022-12-28T10:08:52;7.50;;;2.70;;
76818;SDS011;65772;51.096;17.006;2022-12-28T10:11:27;5.90;;;2.70;;
76818;SDS011;65772;51.096;17.006;2022-12-28T10:14:01;6.00;;;2.00;;
76818;SDS011;65772;51.096;17.006;2022-12-28T10:16:52;6.50;;;2.30;;
76818;SDS011;65772;51.096;17.006;2022-12-28T10:19:25;7.80;;;2.50;;
76818;SDS011;65772;51.096;17.006;2022-12-28T10:21:57;5.30;;;2.10;;
76818;SDS011;65772;51.096;17.006;2022-12-28T10:24:30;6.10;;;2.30;;
76818;SDS011;65772;51.096;17.006;2022-12-28T10:27:02;6.20;;;2.50;;
76818;SDS011;65772;51.096;17.006;2022-12-28T10:29:34;5.20;;;2.10;;
76818;SDS011;65772;51.096;17.006;2022-12-28T10:32:06;6.90;;;1.80;;
76818;SDS011;65772;51.096;17.006;2022-12-28T10:34:52;6.10;;;2.50;;
76818;SDS011;65772;51.096;17.006;2022-12-28T10:37:25;6.50;;;2.20;;
76818;SDS011;65772;51.096;17.006;2022-12-28T10:39:58;11.30;;;3.70;;
76818;SDS011;65772;51.096;17.006;2022-12-28T10:42:33;6.30;;;2.70;;
76818;SDS011;65772;51.096;17.006;2022-12-28T10:45:14;6.60;;;2.30;;
76818;SDS011;65772;51.096;17.006;2022-12-28T10:47:48;8.40;;;2.50;;
76818;SDS011;65772;51.096;17.006;2022-12-28T10:50:37;8.20;;;2.30;;
76818;SDS011;65772;51.096;17.006;2022-12-28T10:53:16;6.80;;;2.70;;
76818;SDS011;65772;51.096;17.006;2022-12-28T10:55:52;7.80;;;2.60;;
76818;SDS011;65772;51.096;17.006;2022-12-28T10:58:31;7.30;;;3.10;;
76818;SDS011;65772;51.096;17.006;2022-12-28T11:01:05;9.70;;;2.90;;
76818;SDS011;65772;51.096;17.006;2022-12-28T11:03:56;5.90;;;2.40;;
76818;SDS011;65772;51.096;17.006;2022-12-28T11:06:29;11.80;;;2.90;;
76818;SDS011;65772;51.096;17.006;2022-12-28T11:09:09;6.90;;;2.70;;
76818;SDS011;65772;51.096;17.006;2022-12-28T11:11:44;6.80;;;2.60;;
76818;SDS011;65772;51.096;17.006;2022-12-28T11:14:20;7.10;;;2.50;;
76818;SDS011;65772;51.096;17.006;2022-12-28T11:16:57;6.80;;;2.50;;
76818;SDS011;65772;51.096;17.006;2022-12-28T11:19:34;5.80;;;1.90;;
76818;SDS011;65772;51.096;17.006;2022-12-28T11:22:06;4.70;;;1.90;;
76818;SDS011;65772;51.096;17.006;2022-12-28T11:24:39;5.30;;;2.50;;
76818;SDS011;65772;51.096;17.006;2022-12-28T11:27:10;6.20;;;2.70;;
76818;SDS011;65772;51.096;17.006;2022-12-28T11:29:46;5.10;;;2.40;;
76818;SDS011;65772;51.096;17.006;2022-12-28T11:32:20;6.50;;;2.70;;
76818;SDS011;65772;51.096;17.006;2022-12-28T11:34:53;5.60;;;2.30;;
76818;SDS011;65772;51.096;17.006;2022-12-28T11:39:54;7.70;;;2.80;;
76818;SDS011;65772;51.096;17.006;2022-12-28T11:51:16;5.60;;;2.20;;
76818;SDS011;65772;51.096;17.006;2022-12-28T11:53:48;7.30;;;2.20;;
76818;SDS011;65772;51.096;17.006;2022-12-28T11:56:21;3.50;;;1.70;;
76818;SDS011;65772;51.096;17.006;2022-12-28T11:59:03;4.10;;;1.70;;
76818;SDS011;65772;51.096;17.006;2022-12-28T12:01:55;6.40;;;1.80;;
76818;SDS011;65772;51.096;17.006;2022-12-28T12:04:31;5.10;;;1.80;;
76818;SDS011;65772;51.096;17.006;2022-12-28T12:16:14;4.40;;;1.70;;
76818;SDS011;65772;51.096;17.006;2022-12-28T12:18:51;5.40;;;1.90;;
76818;SDS011;65772;51.096;17.006;2022-12-28T12:21:33;4.80;;;1.70;;
76818;SDS011;65772;51.096;17.006;2022-12-28T12:24:12;6.10;;;2.20;;
76818;SDS011;65772;51.096;17.006;2022-12-28T12:26:54;3.90;;;1.70;;
76818;SDS011;65772;51.096;17.006;2022-12-28T12:29:36;4.70;;;1.90;;
76818;SDS011;65772;51.096;17.006;2022-12-28T12:32:10;6.10;;;2.10;;
76818;SDS011;65772;51.096;17.006;2022-12-28T12:34:48;6.80;;;1.90;;
76818;SDS011;65772;51.096;17.006;2022-12-28T12:37:25;4.40;;;2.10;;
76818;SDS011;65772;51.096;17.006;2022-12-28T12:40:16;4.80;;;1.80;;
76818;SDS011;65772;51.096;17.006;2022-12-28T12:43:08;5.70;;;1.80;;
76818;SDS011;65772;51.096;17.006;2022-12-28T12:45:50;5.60;;;1.40;;
76818;SDS011;65772;51.096;17.006;2022-12-28T12:48:35;4.10;;;1.70;;
76818;SDS011;65772;51.096;17.006;2022-12-28T12:51:27;5.50;;;1.90;;
76818;SDS011;65772;51.096;17.006;2022-12-28T12:54:15;5.20;;;1.90;;
76818;SDS011;65772;51.096;17.006;2022-12-28T12:56:58;4.50;;;2.10;;
76818;SDS011;65772;51.096;17.006;2022-12-28T12:59:39;7.00;;;1.80;;
76818;SDS011;65772;51.096;17.006;2022-12-28T13:02:26;3.90;;;1.60;;
76818;SDS011;65772;51.096;17.006;2022-12-28T13:05:09;4.20;;;1.80;;
76818;SDS011;65772;51.096;17.006;2022-12-28T13:07:46;5.00;;;2.00;;
76818;SDS011;65772;51.096;17.006;2022-12-28T13:10:21;4.20;;;1.80;;
76818;SDS011;65772;51.096;17.006;2022-12-28T13:12:58;4.50;;;2.20;;
76818;SDS011;65772;51.096;17.006;2022-12-28T13:15:30;5.40;;;1.70;;
76818;SDS011;65772;51.096;17.006;2022-12-28T13:18:02;5.10;;;1.80;;
76818;SDS011;65772;51.096;17.006;2022-12-28T13:21:03;3.70;;;1.50;;
76818;SDS011;65772;51.096;17.006;2022-12-28T13:23:43;5.00;;;1.50;;
76818;SDS011;65772;51.096;17.006;2022-12-28T13:26:14;4.40;;;1.80;;
76818;SDS011;65772;51.096;17.006;2022-12-28T13:28:47;4.50;;;1.80;;
76818;SDS011;65772;51.096;17.006;2022-12-28T13:31:22;5.60;;;2.30;;
76818;SDS011;65772;51.096;17.006;2022-12-28T13:34:00;6.50;;;2.30;;
76818;SDS011;65772;51.096;17.006;2022-12-28T13:36:33;5.20;;;2.40;;
76818;SDS011;65772;51.096;17.006;2022-12-28T13:39:09;5.60;;;1.90;;
76818;SDS011;65772;51.096;17.006;2022-12-28T13:41:44;5.70;;;2.00;;
76818;SDS011;65772;51.096;17.006;2022-12-28T13:44:20;7.00;;;2.80;;
76818;SDS011;65772;51.096;17.006;2022-12-28T13:46:56;3.50;;;1.80;;
76818;SDS011;65772;51.096;17.006;2022-12-28T13:49:31;4.70;;;2.20;;
76818;SDS011;65772;51.096;17.006;2022-12-28T13:52:09;5.20;;;2.30;;
76818;SDS011;65772;51.096;17.006;2022-12-28T13:54:44;3.80;;;1.80;;
76818;SDS011;65772;51.096;17.006;2022-12-28T13:57:18;5.30;;;1.70;;
76818;SDS011;65772;51.096;17.006;2022-12-28T14:00:11;4.60;;;2.10;;
76818;SDS011;65772;51.096;17.006;2022-12-28T14:02:46;5.10;;;1.70;;
76818;SDS011;65772;51.096;17.006;2022-12-28T14:05:19;4.60;;;2.40;;
76818;SDS011;65772;51.096;17.006;2022-12-28T14:07:51;4.50;;;2.00;;
76818;SDS011;65772;51.096;17.006;2022-12-28T14:10:24;4.60;;;1.90;;
76818;SDS011;65772;51.096;17.006;2022-12-28T14:12:55;4.40;;;1.90;;
76818;SDS011;65772;51.096;17.006;2022-12-28T14:15:27;3.20;;;1.70;;
76818;SDS011;65772;51.096;17.006;2022-12-28T14:18:07;6.60;;;2.10;;
76818;SDS011;65772;51.096;17.006;2022-12-28T14:20:48;4.20;;;1.90;;
76818;SDS011;65772;51.096;17.006;2022-12-28T14:23:20;4.10;;;1.80;;
76818;SDS011;65772;51.096;17.006;2022-12-28T14:25:53;7.60;;;2.40;;
76818;SDS011;65772;51.096;17.006;2022-12-28T14:28:32;7.50;;;2.10;;
76818;SDS011;65772;51.096;17.006;2022-12-28T14:31:06;5.10;;;2.10;;
76818;SDS011;65772;51.096;17.006;2022-12-28T14:33:49;4.90;;;2.20;;
76818;SDS011;65772;51.096;17.006;2022-12-28T14:36:23;4.20;;;1.90;;
76818;SDS011;65772;51.096;17.006;2022-12-28T14:38:56;4.10;;;1.90;;
76818;SDS011;65772;51.096;17.006;2022-12-28T14:41:47;6.30;;;2.30;;
76818;SDS011;65772;51.096;17.006;2022-12-28T14:44:20;5.10;;;2.20;;
76818;SDS011;65772;51.096;17.006;2022-12-28T14:46:56;6.50;;;2.00;;
76818;SDS011;65772;51.096;17.006;2022-12-28T14:49:34;5.80;;;2.20;;
76818;SDS011;65772;51.096;17.006;2022-12-28T14:58:13;6.00;;;2.60;;
76818;SDS011;65772;51.096;17.006;2022-12-28T15:00:56;5.40;;;2.40;;
76818;SDS011;65772;51.096;17.006;2022-12-28T15:05:59;6.50;;;2.60;;
76818;SDS011;65772;51.096;17.006;2022-12-28T15:08:29;10.70;;;3.50;;
76818;SDS011;65772;51.096;17.006;2022-12-28T15:11:00;8.90;;;3.30;;
76818;SDS011;65772;51.096;17.006;2022-12-28T15:13:35;7.60;;;2.60;;
76818;SDS011;65772;51.096;17.006;2022-12-28T15:16:08;5.30;;;2.30;;
76818;SDS011;65772;51.096;17.006;2022-12-28T15:18:42;6.00;;;2.40;;
76818;SDS011;65772;51.096;17.006;2022-12-28T15:21:13;5.40;;;2.50;;
76818;SDS011;65772;51.096;17.006;2022-12-28T15:23:48;6.80;;;3.00;;
76818;SDS011;65772;51.096;17.006;2022-12-28T15:26:25;8.30;;;2.80;;
76818;SDS011;65772;51.096;17.006;2022-12-28T15:28:55;7.30;;;2.70;;
76818;SDS011;65772;51.096;17.006;2022-12-28T15:31:26;6.90;;;2.90;;
76818;SDS011;65772;51.096;17.006;2022-12-28T15:33:56;5.70;;;2.40;;
76818;SDS011;65772;51.096;17.006;2022-12-28T15:36:27;8.00;;;3.00;;
76818;SDS011;65772;51.096;17.006;2022-12-28T15:38:57;6.30;;;2.40;;
76818;SDS011;65772;51.096;17.006;2022-12-28T15:41:29;9.10;;;3.20;;
76818;SDS011;65772;51.096;17.006;2022-12-28T15:44:19;11.10;;;3.40;;
76818;SDS011;65772;51.096;17.006;2022-12-28T15:46:50;6.20;;;2.60;;
76818;SDS011;65772;51.096;17.006;2022-12-28T15:49:21;7.40;;;3.10;;
76818;SDS011;65772;51.096;17.006;2022-12-28T15:51:51;9.40;;;3.50;;
76818;SDS011;65772;51.096;17.006;2022-12-28T15:54:22;8.90;;;3.40;;
76818;SDS011;65772;51.096;17.006;2022-12-28T15:56:53;9.60;;;4.00;;
76818;SDS011;65772;51.096;17.006;2022-12-28T15:59:25;7.90;;;3.80;;
76818;SDS011;65772;51.096;17.006;2022-12-28T16:01:55;9.50;;;4.00;;